createdAt,value
2022-11-06T00:00:25.123Z,47.34
2022-11-06T00:02:50.721Z,47.36
2022-11-06T00:05:36.273Z,47.48
2022-11-06T00:08:01.819Z,47.27
2022-11-06T00:10:28.905Z,47.43
2022-11-06T00:12:54.454Z,47.73
2022-11-06T00:15:19.997Z,47.56
2022-11-06T00:17:47.583Z,47.50
2022-11-06T00:20:13.125Z,47.61
2022-11-06T00:22:38.674Z,48.20
2022-11-06T00:25:04.525Z,47.52
2022-11-06T00:27:30.077Z,47.36
2022-11-06T00:29:55.621Z,47.66
2022-11-06T00:32:21.179Z,47.44
2022-11-06T00:34:46.910Z,48.14
2022-11-06T00:37:12.586Z,47.55
2022-11-06T00:39:38.128Z,47.40
2022-11-06T00:42:03.929Z,47.56
2022-11-06T00:44:29.477Z,47.38
2022-11-06T00:46:55.031Z,48.02
2022-11-06T00:49:20.569Z,47.50
2022-11-06T00:51:46.120Z,47.62
2022-11-06T00:54:11.912Z,47.39
2022-11-06T00:56:37.620Z,47.39
2022-11-06T00:59:04.425Z,47.44
2022-11-06T01:01:31.028Z,47.80
2022-11-06T01:03:57.674Z,48.11
2022-11-06T01:06:24.333Z,47.53
2022-11-06T01:08:50.057Z,47.35
2022-11-06T01:11:17.134Z,48.19
2022-11-06T01:13:42.711Z,47.77
2022-11-06T01:16:09.243Z,47.59
2022-11-06T01:18:35.646Z,47.72
2022-11-06T01:21:03.146Z,47.93
2022-11-06T01:23:28.690Z,47.52
2022-11-06T01:25:56.151Z,47.27
2022-11-06T01:28:21.697Z,47.42
2022-11-06T01:30:47.244Z,47.36
2022-11-06T01:33:12.784Z,47.46
2022-11-06T01:35:43.344Z,48.03
2022-11-06T01:38:08.901Z,47.56
2022-11-06T01:40:42.342Z,47.34
2022-11-06T01:43:10.613Z,47.50
2022-11-06T01:45:37.268Z,47.46
2022-11-06T01:48:02.847Z,47.53
2022-11-06T01:50:28.412Z,47.33
2022-11-06T01:52:54.148Z,47.45
2022-11-06T01:55:22.519Z,47.39
2022-11-06T01:57:48.086Z,47.47
2022-11-06T02:00:13.712Z,47.36
2022-11-06T02:02:39.408Z,47.57
2022-11-06T02:05:05.330Z,47.47
2022-11-06T02:07:30.872Z,47.50
2022-11-06T02:09:56.428Z,47.36
2022-11-06T02:12:41.846Z,47.45
2022-11-06T02:15:11.668Z,47.46
2022-11-06T02:17:48.157Z,47.67
2022-11-06T02:20:17.671Z,47.60
2022-11-06T02:22:50.912Z,47.81
2022-11-06T02:25:28.497Z,47.64
2022-11-06T02:27:57.451Z,47.38
2022-11-06T02:30:22.998Z,47.32
2022-11-06T02:33:04.959Z,47.34
2022-11-06T02:35:32.255Z,47.38
2022-11-06T02:37:59.562Z,47.30
2022-11-06T02:40:25.816Z,47.45
2022-11-06T02:42:52.635Z,47.31
2022-11-06T02:45:18.185Z,47.33
2022-11-06T02:47:44.223Z,47.31
2022-11-06T02:50:11.408Z,47.37
2022-11-06T02:52:38.609Z,47.42
2022-11-06T02:55:08.946Z,47.51
2022-11-06T02:57:35.470Z,47.48
2022-11-06T03:00:03.067Z,47.42
2022-11-06T03:02:30.152Z,47.45
2022-11-06T03:05:13.212Z,47.60
2022-11-06T03:07:42.569Z,47.59
2022-11-06T03:10:08.121Z,47.45
2022-11-06T03:12:37.642Z,47.47
2022-11-06T03:15:06.372Z,47.34
2022-11-06T03:17:37.750Z,47.60
2022-11-06T03:20:16.183Z,47.64
2022-11-06T03:22:51.682Z,47.93
2022-11-06T03:25:21.651Z,48.40
2022-11-06T03:27:49.807Z,48.24
2022-11-06T03:30:16.925Z,47.79
2022-11-06T03:32:50.389Z,48.51
2022-11-06T03:35:35.164Z,47.95
2022-11-06T03:38:20.583Z,48.42
2022-11-06T03:40:46.802Z,47.97
2022-11-06T03:43:12.903Z,47.87
2022-11-06T03:45:38.640Z,48.45
2022-11-06T03:48:13.437Z,48.39
2022-11-06T03:50:40.284Z,48.21
2022-11-06T03:53:09.909Z,47.83
2022-11-06T03:55:38.918Z,48.47
2022-11-06T03:58:05.690Z,48.25
2022-11-06T04:00:32.020Z,48.67
2022-11-06T04:03:03.892Z,47.49
2022-11-06T04:05:30.957Z,48.65
2022-11-06T04:08:16.629Z,48.43
2022-11-06T04:11:03.273Z,48.57
2022-11-06T04:13:49.119Z,47.76
2022-11-06T04:16:14.666Z,47.78
2022-11-06T04:18:40.211Z,47.99
2022-11-06T04:21:27.922Z,48.36
2022-11-06T04:24:22.449Z,48.34
2022-11-06T04:32:27.095Z,48.42
2022-11-06T04:35:02.720Z,48.17
2022-11-06T04:37:48.142Z,48.68
2022-11-06T04:40:17.784Z,48.49
2022-11-06T04:42:49.751Z,47.96
2022-11-06T04:45:16.711Z,48.43
2022-11-06T04:47:42.439Z,48.54
2022-11-06T04:50:07.987Z,48.38
2022-11-06T04:52:33.525Z,48.51
2022-11-06T04:54:59.083Z,48.39
2022-11-06T04:57:24.621Z,48.75
2022-11-06T04:59:50.171Z,48.40
2022-11-06T05:02:15.762Z,48.42
2022-11-06T05:04:41.362Z,48.06
2022-11-06T05:07:06.906Z,48.79
2022-11-06T05:09:32.472Z,48.70
2022-11-06T05:11:58.030Z,48.24
2022-11-06T05:14:23.577Z,48.85
2022-11-06T05:16:49.118Z,48.59
2022-11-06T05:19:14.672Z,48.44
2022-11-06T05:22:00.119Z,48.59
2022-11-06T05:24:25.681Z,48.00
2022-11-06T05:26:56.144Z,48.61
2022-11-06T05:29:24.589Z,48.65
2022-11-06T05:31:50.134Z,48.58
2022-11-06T05:34:15.687Z,48.12
2022-11-06T05:36:41.232Z,48.65
2022-11-06T05:39:06.980Z,47.67
2022-11-06T05:41:32.523Z,48.50
2022-11-06T05:43:58.179Z,48.60
2022-11-06T05:46:46.985Z,48.28
2022-11-06T05:49:09.257Z,47.94
2022-11-06T05:51:35.065Z,48.02
2022-11-06T05:54:00.634Z,48.57
2022-11-06T05:56:26.173Z,48.54
2022-11-06T05:58:51.721Z,48.54
2022-11-06T06:01:17.266Z,48.56
2022-11-06T06:03:42.815Z,48.73
2022-11-06T06:06:08.359Z,48.80
2022-11-06T06:08:33.908Z,47.92
2022-11-06T06:10:59.440Z,48.45
2022-11-06T06:13:24.987Z,47.81
2022-11-06T06:15:50.536Z,47.81
2022-11-06T06:18:16.368Z,48.85
2022-11-06T06:20:42.088Z,47.94
2022-11-06T06:23:09.670Z,48.63
2022-11-06T06:25:35.376Z,48.09
2022-11-06T06:28:00.913Z,48.78
2022-11-06T06:30:26.465Z,48.42
2022-11-06T06:32:52.022Z,48.83
2022-11-06T06:35:17.633Z,48.50
2022-11-06T06:37:49.436Z,48.66
2022-11-06T06:40:14.989Z,48.72
2022-11-06T06:42:40.522Z,48.70
2022-11-06T06:45:06.081Z,48.27
2022-11-06T06:47:31.629Z,48.31
2022-11-06T06:49:57.183Z,48.77
2022-11-06T06:52:22.729Z,48.67
2022-11-06T06:54:48.289Z,48.72
2022-11-06T06:57:13.830Z,48.01
2022-11-06T06:59:39.382Z,48.62
2022-11-06T07:02:05.229Z,48.65
2022-11-06T07:04:30.833Z,48.29
2022-11-06T07:06:56.392Z,48.75
2022-11-06T07:09:23.062Z,48.49
2022-11-06T07:11:48.603Z,48.65
2022-11-06T07:14:14.163Z,48.74
2022-11-06T07:16:39.707Z,48.61
2022-11-06T07:19:05.258Z,48.87
2022-11-06T07:21:30.802Z,48.86
2022-11-06T07:23:56.354Z,48.77
2022-11-06T07:26:21.893Z,48.51
2022-11-06T07:28:47.463Z,48.69
2022-11-06T07:31:13.055Z,48.07
2022-11-06T07:33:38.603Z,48.72
2022-11-06T07:36:04.840Z,48.59
2022-11-06T07:38:31.835Z,48.86
2022-11-06T07:41:00.032Z,48.53
2022-11-06T07:43:26.904Z,48.67
2022-11-06T07:45:52.453Z,48.61
2022-11-06T07:48:17.997Z,48.68
2022-11-06T07:50:43.550Z,48.72
2022-11-06T07:53:09.110Z,48.87
2022-11-06T07:55:39.168Z,48.69
2022-11-06T07:58:07.451Z,48.90
2022-11-06T08:00:32.998Z,48.73
2022-11-06T08:02:58.552Z,48.01
2022-11-06T08:05:24.101Z,48.73
2022-11-06T08:07:54.701Z,48.90
2022-11-06T08:10:20.271Z,48.84
2022-11-06T08:12:45.817Z,48.77
2022-11-06T08:15:11.354Z,48.87
2022-11-06T08:17:36.899Z,48.15
2022-11-06T08:20:02.629Z,48.42
2022-11-06T08:22:28.162Z,48.77
2022-11-06T08:24:53.715Z,48.72
2022-11-06T08:27:19.268Z,48.78
2022-11-06T08:29:44.824Z,48.87
2022-11-06T08:32:10.372Z,48.71
2022-11-06T08:34:36.015Z,48.76
2022-11-06T08:37:01.616Z,48.69
2022-11-06T08:39:27.174Z,48.78
2022-11-06T08:41:52.715Z,48.90
2022-11-06T08:44:18.265Z,48.79
2022-11-06T08:46:47.883Z,48.81
2022-11-06T08:49:17.217Z,48.73
2022-11-06T08:51:42.771Z,48.54
2022-11-06T08:54:09.322Z,48.77
2022-11-06T08:56:34.924Z,48.90
2022-11-06T08:59:00.531Z,48.68
2022-11-06T09:01:26.292Z,49.05
2022-11-06T09:03:51.993Z,48.80
2022-11-06T09:06:17.539Z,48.77
2022-11-06T09:08:43.138Z,48.70
2022-11-06T09:11:09.928Z,48.68
2022-11-06T09:13:35.618Z,48.93
2022-11-06T09:16:01.319Z,48.71
2022-11-06T09:18:26.930Z,48.89
2022-11-06T09:20:54.495Z,48.10
2022-11-06T09:23:20.055Z,48.72
2022-11-06T09:25:45.600Z,48.85
2022-11-06T09:28:11.149Z,48.83
2022-11-06T09:30:36.705Z,48.91
2022-11-06T09:33:02.385Z,48.74
2022-11-06T09:35:28.823Z,48.77
2022-11-06T09:37:54.363Z,48.79
2022-11-06T09:42:57.542Z,48.77
2022-11-06T09:45:23.998Z,48.81
2022-11-06T09:47:51.286Z,48.78
2022-11-06T09:50:18.039Z,48.77
2022-11-06T09:52:44.964Z,48.81
2022-11-06T09:55:15.629Z,48.92
2022-11-06T09:58:01.485Z,48.85
2022-11-06T10:00:27.030Z,48.88
2022-11-06T10:03:00.351Z,48.93
2022-11-06T10:05:35.292Z,48.87
2022-11-06T10:08:02.249Z,48.95
2022-11-06T10:10:29.521Z,48.87
2022-11-06T10:13:01.433Z,48.63
2022-11-06T10:15:28.115Z,48.86
2022-11-06T10:17:57.007Z,48.91
2022-11-06T10:20:27.456Z,48.76
2022-11-06T10:23:13.036Z,48.84
2022-11-06T10:25:42.825Z,48.78
2022-11-06T10:28:14.335Z,48.77
2022-11-06T10:30:44.324Z,48.76
2022-11-06T10:33:12.862Z,48.52
2022-11-06T10:35:40.749Z,48.82
2022-11-06T10:38:09.065Z,48.88
2022-11-06T10:40:34.602Z,48.82
2022-11-06T10:43:05.033Z,48.96
2022-11-06T10:45:30.572Z,48.77
2022-11-06T10:48:02.660Z,48.98
2022-11-06T10:50:32.092Z,48.60
2022-11-06T10:52:59.171Z,48.67
2022-11-06T10:55:30.008Z,48.80
2022-11-06T10:57:57.781Z,48.84
2022-11-06T11:00:23.510Z,48.72
2022-11-06T11:02:51.061Z,48.88
2022-11-06T11:05:17.227Z,48.83
2022-11-06T11:07:43.182Z,48.95
2022-11-06T11:10:24.934Z,48.80
2022-11-06T11:12:51.431Z,48.94
2022-11-06T11:15:17.602Z,48.98
2022-11-06T11:17:43.148Z,48.94
2022-11-06T11:20:28.585Z,48.88
2022-11-06T11:23:04.015Z,48.83
2022-11-06T11:25:29.619Z,48.74
2022-11-06T11:27:55.158Z,48.95
2022-11-06T11:30:22.786Z,48.90
2022-11-06T11:32:48.732Z,48.70
2022-11-06T11:35:15.642Z,48.96
2022-11-06T11:37:41.195Z,48.80
2022-11-06T11:40:26.617Z,48.90
2022-11-06T11:42:52.162Z,48.84
2022-11-06T11:45:19.187Z,48.70
2022-11-06T11:47:46.526Z,48.78
2022-11-06T11:50:28.495Z,48.90
2022-11-06T11:52:55.959Z,48.87
2022-11-06T11:55:22.770Z,48.76
2022-11-06T11:57:49.144Z,48.95
2022-11-06T12:00:16.606Z,48.65
2022-11-06T12:02:42.984Z,48.95
2022-11-06T12:05:16.317Z,48.75
2022-11-06T12:07:46.252Z,48.98
2022-11-06T12:10:31.948Z,48.54
2022-11-06T12:12:57.759Z,48.98
2022-11-06T12:15:29.368Z,48.88
2022-11-06T12:18:02.990Z,48.99
2022-11-06T12:20:39.805Z,48.81
2022-11-06T12:23:05.717Z,48.83
2022-11-06T12:25:39.226Z,48.89
2022-11-06T12:28:05.434Z,48.98
2022-11-06T12:30:32.147Z,48.79
2022-11-06T12:32:59.760Z,48.91
2022-11-06T12:35:29.444Z,48.96
2022-11-06T12:38:15.825Z,48.84
2022-11-06T12:40:44.430Z,48.74
2022-11-06T12:43:12.471Z,48.98
2022-11-06T12:45:43.158Z,48.92
2022-11-06T12:48:28.581Z,48.83
2022-11-06T12:50:58.050Z,48.95
2022-11-06T12:53:27.423Z,48.97
2022-11-06T12:55:57.369Z,48.99
2022-11-06T12:58:28.048Z,48.92
2022-11-06T13:01:04.085Z,48.97
2022-11-06T13:03:49.564Z,48.87
2022-11-06T13:06:22.513Z,48.89
2022-11-06T13:08:54.075Z,48.97
2022-11-06T13:11:39.495Z,48.52
2022-11-06T13:14:09.870Z,49.09
2022-11-06T13:16:54.044Z,48.63
2022-11-06T13:19:38.448Z,48.86
2022-11-06T13:22:07.215Z,48.97
2022-11-06T13:24:37.003Z,49.00
2022-11-06T13:27:08.618Z,48.97
2022-11-06T13:29:34.613Z,48.80
2022-11-06T13:32:00.966Z,48.92
2022-11-06T13:34:30.122Z,48.87
2022-11-06T13:36:55.666Z,48.87
2022-11-06T13:39:25.614Z,48.78
2022-11-06T13:41:51.833Z,48.89
2022-11-06T13:44:17.405Z,48.93
2022-11-06T13:49:43.778Z,48.97
2022-11-06T13:52:19.588Z,49.12
2022-11-06T13:55:05.026Z,48.92
2022-11-06T13:57:34.211Z,48.87
2022-11-06T14:00:05.369Z,49.04
2022-11-06T14:02:36.946Z,48.90
2022-11-06T14:05:19.381Z,48.75
2022-11-06T14:07:44.916Z,48.89
2022-11-06T14:10:29.505Z,49.04
2022-11-06T14:12:55.046Z,48.85
2022-11-06T14:15:23.329Z,48.80
2022-11-06T14:17:56.043Z,49.08
2022-11-06T14:20:37.205Z,48.90
2022-11-06T14:23:22.642Z,48.91
2022-11-06T14:26:08.063Z,48.87
2022-11-06T14:28:36.257Z,48.90
2022-11-06T14:31:23.692Z,48.86
2022-11-06T14:36:27.412Z,48.96
2022-11-06T14:38:52.965Z,48.80
2022-11-06T14:44:25.079Z,48.89
2022-11-06T14:46:51.092Z,48.86
2022-11-06T14:49:22.658Z,49.02
2022-11-06T14:51:56.219Z,48.79
2022-11-06T14:54:22.391Z,48.93
2022-11-06T14:56:51.554Z,48.82
2022-11-06T14:59:27.807Z,48.97
2022-11-06T15:01:57.817Z,49.06
2022-11-06T15:04:23.584Z,49.09
2022-11-06T15:06:49.919Z,48.91
2022-11-06T15:11:58.687Z,49.01
2022-11-06T15:17:01.929Z,49.07
2022-11-06T15:19:28.022Z,48.90
2022-11-06T15:22:13.452Z,48.90
2022-11-06T15:24:42.702Z,49.05
2022-11-06T15:27:11.291Z,49.21
2022-11-06T15:29:37.298Z,48.74
2022-11-06T15:32:03.760Z,48.95
2022-11-06T15:34:30.508Z,48.95
2022-11-06T15:36:58.163Z,49.03
2022-11-06T15:39:32.458Z,48.99
2022-11-06T15:41:57.997Z,49.08
2022-11-06T15:44:23.554Z,48.98
2022-11-06T15:46:53.213Z,48.80
2022-11-06T15:49:19.169Z,49.09
2022-11-06T15:51:53.023Z,49.08
2022-11-06T15:54:38.536Z,49.06
2022-11-06T15:57:05.522Z,48.96
2022-11-06T15:59:31.455Z,49.01
2022-11-06T16:01:57.094Z,49.06
2022-11-06T16:04:23.611Z,48.88
2022-11-06T16:06:49.235Z,48.96
2022-11-06T16:09:16.380Z,48.77
2022-11-06T16:11:42.563Z,48.90
2022-11-06T16:14:09.502Z,48.89
2022-11-06T16:16:36.780Z,49.05
2022-11-06T16:19:02.970Z,49.07
2022-11-06T16:21:30.425Z,48.94
2022-11-06T16:23:58.501Z,48.88
2022-11-06T16:26:25.779Z,49.02
2022-11-06T16:28:51.803Z,48.83
2022-11-06T16:31:18.364Z,48.82
2022-11-06T16:34:00.322Z,49.01
2022-11-06T16:36:26.908Z,48.88
2022-11-06T16:38:52.663Z,48.93
2022-11-06T16:41:38.774Z,49.02
2022-11-06T16:44:23.562Z,48.92
2022-11-06T16:47:13.360Z,48.81
2022-11-06T16:49:39.490Z,48.91
2022-11-06T16:52:24.927Z,48.74
2022-11-06T16:54:51.518Z,48.81
2022-11-06T16:57:18.466Z,48.73
2022-11-06T16:59:44.214Z,48.84
2022-11-06T17:02:18.620Z,48.91
2022-11-06T17:04:44.239Z,48.82
2022-11-06T17:07:12.159Z,48.91
2022-11-06T17:09:37.715Z,48.84
2022-11-06T17:12:08.507Z,48.81
2022-11-06T17:14:34.118Z,48.92
2022-11-06T17:16:59.970Z,48.46
2022-11-06T17:19:26.020Z,48.94
2022-11-06T17:21:51.558Z,48.67
2022-11-06T17:27:02.870Z,48.93
2022-11-06T17:29:28.419Z,48.76
2022-11-06T17:31:54.967Z,48.91
2022-11-06T17:34:20.522Z,48.86
2022-11-06T17:36:46.065Z,48.85
2022-11-06T17:39:11.621Z,48.84
2022-11-06T17:41:37.162Z,48.92
2022-11-06T17:44:03.851Z,48.82
2022-11-06T17:46:31.691Z,48.33
2022-11-06T17:48:57.606Z,48.74
2022-11-06T17:51:43.167Z,48.91
2022-11-06T17:54:08.914Z,48.87
2022-11-06T17:56:37.978Z,48.84
2022-11-06T17:59:03.856Z,48.50
2022-11-06T18:01:29.652Z,48.62
2022-11-06T18:03:55.267Z,48.53
2022-11-06T18:06:20.805Z,48.85
2022-11-06T18:08:46.362Z,48.74
2022-11-06T18:11:11.995Z,48.73
2022-11-06T18:13:37.543Z,48.81
2022-11-06T18:16:03.386Z,48.73
2022-11-06T18:18:28.932Z,48.80
2022-11-06T18:20:54.470Z,48.77
2022-11-06T18:23:20.014Z,48.65
2022-11-06T18:25:53.930Z,48.66
2022-11-06T18:28:19.856Z,48.82
2022-11-06T18:30:45.605Z,48.86
2022-11-06T18:33:11.146Z,48.79
2022-11-06T18:35:36.704Z,48.81
2022-11-06T18:38:02.553Z,48.85
2022-11-06T18:40:28.102Z,48.66
2022-11-06T18:42:54.185Z,48.81
2022-11-06T18:45:19.787Z,48.79
2022-11-06T18:47:45.325Z,48.74
2022-11-06T18:50:10.871Z,48.65
2022-11-06T18:52:56.336Z,48.86
2022-11-06T18:55:21.936Z,48.59
2022-11-06T18:57:47.478Z,48.67
2022-11-06T19:00:13.313Z,48.78
2022-11-06T19:02:39.191Z,48.59
2022-11-06T19:05:05.087Z,48.64
2022-11-06T19:07:30.667Z,48.67
2022-11-06T19:09:56.213Z,48.66
2022-11-06T19:12:21.792Z,48.76
2022-11-06T19:14:47.342Z,48.61
2022-11-06T19:17:12.884Z,48.79
2022-11-06T19:19:38.439Z,48.88
2022-11-06T19:22:03.990Z,48.60
2022-11-06T19:24:29.542Z,48.60
2022-11-06T19:26:55.099Z,48.70
2022-11-06T19:29:20.657Z,48.94
2022-11-06T19:31:46.198Z,48.70
2022-11-06T19:34:11.819Z,48.68
2022-11-06T19:36:37.445Z,48.78
2022-11-06T19:39:03.314Z,48.77
2022-11-06T19:41:28.912Z,48.80
2022-11-06T19:43:54.466Z,48.82
2022-11-06T19:46:25.070Z,48.71
2022-11-06T19:48:52.658Z,48.67
2022-11-06T19:51:18.233Z,48.76
2022-11-06T19:53:43.802Z,48.53
2022-11-06T19:56:09.886Z,48.40
2022-11-06T19:58:35.438Z,48.81
2022-11-06T20:01:08.579Z,48.74
2022-11-06T20:03:34.330Z,48.59
2022-11-06T20:06:04.857Z,48.75
2022-11-06T20:08:33.075Z,48.64
2022-11-06T20:11:06.630Z,48.78
2022-11-06T20:13:35.503Z,48.68
2022-11-06T20:16:02.817Z,48.75
2022-11-06T20:18:28.844Z,48.71
2022-11-06T20:20:54.398Z,48.67
2022-11-06T20:23:19.953Z,48.68
2022-11-06T20:25:45.506Z,48.68
2022-11-06T20:28:11.048Z,48.72
2022-11-06T20:30:36.605Z,48.60
2022-11-06T20:33:02.168Z,48.51
2022-11-06T20:35:27.897Z,48.79
2022-11-06T20:37:53.437Z,48.63
2022-11-06T20:40:18.990Z,48.72
2022-11-06T20:42:44.844Z,48.63
2022-11-06T20:45:10.398Z,48.58
2022-11-06T20:47:35.957Z,48.62
2022-11-06T20:50:01.512Z,48.70
2022-11-06T20:52:27.054Z,48.53
2022-11-06T20:54:52.612Z,48.90
2022-11-06T20:57:18.157Z,48.78
2022-11-06T20:59:43.906Z,48.86
2022-11-06T21:02:10.125Z,48.64
2022-11-06T21:04:35.772Z,48.69
2022-11-06T21:07:01.316Z,48.60
2022-11-06T21:09:26.898Z,48.61
2022-11-06T21:11:52.437Z,48.63
2022-11-06T21:14:18.029Z,48.57
2022-11-06T21:16:43.948Z,48.63
2022-11-06T21:19:09.503Z,48.64
2022-11-06T21:21:37.146Z,48.55
2022-11-06T21:24:03.793Z,48.71
2022-11-06T21:26:30.109Z,48.69
2022-11-06T21:28:55.663Z,48.60
2022-11-06T21:31:22.397Z,48.72
2022-11-06T21:33:48.538Z,48.49
2022-11-06T21:36:15.017Z,48.54
2022-11-06T21:38:40.678Z,48.63
2022-11-06T21:41:06.792Z,48.72
2022-11-06T21:43:32.345Z,48.50
2022-11-06T21:46:01.610Z,48.74
2022-11-06T21:48:45.081Z,48.75
2022-11-06T21:51:12.855Z,48.79
2022-11-06T21:53:58.562Z,48.68
2022-11-06T21:56:26.213Z,48.54
2022-11-06T21:58:52.425Z,48.79
2022-11-06T22:01:18.109Z,48.65
2022-11-06T22:03:43.743Z,48.82
2022-11-06T22:06:10.071Z,48.71
2022-11-06T22:08:36.358Z,48.64
2022-11-06T22:11:11.315Z,48.73
2022-11-06T22:13:36.870Z,48.63
2022-11-06T22:16:02.406Z,48.74
2022-11-06T22:18:27.956Z,48.73
2022-11-06T22:20:53.498Z,48.54
2022-11-06T22:23:19.049Z,48.60
2022-11-06T22:25:44.586Z,48.62
2022-11-06T22:28:10.134Z,48.57
2022-11-06T22:30:35.686Z,48.72
2022-11-06T22:33:01.238Z,48.70
2022-11-06T22:35:26.810Z,48.76
2022-11-06T22:37:52.364Z,48.68
2022-11-06T22:40:17.975Z,48.60
2022-11-06T22:42:47.199Z,48.88
2022-11-06T22:45:15.026Z,48.54
2022-11-06T22:47:40.737Z,48.57
2022-11-06T22:50:06.386Z,48.63
2022-11-06T22:52:31.927Z,48.81
2022-11-06T22:54:57.495Z,48.68
2022-11-06T22:57:23.039Z,48.64
2022-11-06T22:59:48.681Z,48.74
2022-11-06T23:02:14.291Z,48.81
2022-11-06T23:04:39.875Z,48.77
2022-11-06T23:07:05.417Z,48.69
2022-11-06T23:09:30.971Z,48.72
2022-11-06T23:11:56.524Z,48.87
2022-11-06T23:14:22.089Z,48.68
2022-11-06T23:17:03.561Z,48.86
2022-11-06T23:19:29.864Z,48.62
2022-11-06T23:22:15.314Z,48.75
2022-11-06T23:24:40.882Z,48.79
2022-11-06T23:27:06.430Z,48.81
2022-11-06T23:29:31.989Z,48.57
2022-11-06T23:31:57.531Z,48.63
2022-11-06T23:34:23.082Z,48.74
2022-11-06T23:36:48.624Z,48.77
2022-11-06T23:39:14.174Z,48.69
2022-11-06T23:41:42.743Z,48.86
2022-11-06T23:44:28.205Z,48.94
2022-11-06T23:46:53.743Z,48.81
2022-11-06T23:49:19.293Z,48.79
2022-11-06T23:51:44.843Z,48.75
2022-11-06T23:54:10.394Z,48.82
2022-11-06T23:56:35.952Z,48.55
2022-11-06T23:59:01.507Z,48.62
